San Antonio, Texas
Traffic Map
Current Weather Conditions
San Antonio, Texas
Broken Clouds
Broken Clouds
86°
Feels Like: 90°
Wind Chill: 86° Ceiling: 25000
Heat Index: 90° Visibility: 10mi
Dew Point: 69° Wind: 10mph
Humidity: 58% Direction: 120° (ESE)
Pressure: 29.99in Gusts: 0mph
Raw Report DataKSKF 292258Z 12009KT 10SM FEW049 BKN250 30/21 A2999 RMK AO2A SLP149 T02980208 $
Traffic Incident Summary
Active as of:
Severity:
Category:
InformationThere was an issue retrieving the traffic information for this location. Please try a different location or try again shortly.
Advertisements
Track Severe Weather on mobile